createdAt,value
2022-10-22T00:01:30.545Z,6.32
2022-10-22T00:03:58.514Z,6.82
2022-10-22T00:06:26.609Z,7.43
2022-10-22T00:08:55.419Z,7.10
2022-10-22T00:11:23.490Z,7.13
2022-10-22T00:13:51.491Z,7.88
2022-10-22T00:16:19.483Z,6.85
2022-10-22T00:18:48.873Z,8.25
2022-10-22T00:21:16.897Z,6.80
2022-10-22T00:23:45.163Z,7.28
2022-10-22T00:26:13.405Z,7.43
2022-10-22T00:28:41.629Z,6.80
2022-10-22T00:31:09.865Z,6.35
2022-10-22T00:33:37.886Z,7.45
2022-10-22T00:36:08.201Z,6.72
2022-10-22T00:38:36.629Z,6.95
2022-10-22T00:41:04.755Z,6.10
2022-10-22T00:43:32.945Z,6.97
2022-10-22T00:46:00.966Z,6.50
2022-10-22T00:48:33.396Z,7.13
2022-10-22T00:51:04.298Z,6.63
2022-10-22T00:53:38.682Z,7.25
2022-10-22T00:56:07.774Z,7.18
2022-10-22T00:58:40.290Z,6.43
2022-10-22T01:01:11.544Z,6.35
2022-10-22T01:03:39.584Z,6.75
2022-10-22T01:06:08.600Z,6.70
2022-10-22T01:08:46.467Z,6.97
2022-10-22T01:11:19.914Z,7.45
2022-10-22T01:13:55.452Z,6.60
2022-10-22T01:16:31.714Z,6.45
2022-10-22T01:19:09.398Z,6.72
2022-10-22T01:21:43.536Z,6.32
2022-10-22T01:24:25.698Z,6.63
2022-10-22T01:27:06.149Z,6.55
2022-10-22T01:29:40.156Z,6.97
2022-10-22T01:32:12.816Z,6.45
2022-10-22T01:34:44.327Z,6.38
2022-10-22T01:37:15.319Z,7.50
2022-10-22T01:39:46.574Z,6.53
2022-10-22T01:42:16.138Z,6.43
2022-10-22T01:44:45.565Z,7.43
2022-10-22T01:47:20.267Z,6.88
2022-10-22T01:50:10.413Z,6.22
2022-10-22T01:52:55.336Z,6.38
2022-10-22T01:55:30.867Z,6.60
2022-10-22T01:58:08.203Z,6.32
2022-10-22T02:00:41.026Z,6.22
2022-10-22T02:03:17.483Z,7.05
2022-10-22T02:05:53.187Z,6.03
2022-10-22T02:08:24.922Z,6.43
2022-10-22T02:10:54.518Z,5.38
2022-10-22T02:13:28.255Z,5.82
2022-10-22T02:15:59.810Z,6.22
2022-10-22T02:18:35.273Z,6.18
2022-10-22T02:23:40.726Z,6.38
2022-10-22T02:26:26.500Z,6.15
2022-10-22T02:29:00.980Z,6.63
2022-10-22T02:31:33.700Z,6.13
2022-10-22T02:36:33.601Z,6.47
2022-10-22T02:39:02.667Z,6.80
2022-10-22T02:41:31.483Z,6.22
2022-10-22T02:43:59.462Z,6.45
2022-10-22T02:46:27.617Z,6.15
2022-10-22T02:48:56.991Z,5.65
2022-10-22T02:51:24.987Z,5.63
2022-10-22T02:53:52.972Z,6.28
2022-10-22T02:56:21.025Z,6.25
2022-10-22T02:58:49.043Z,5.75
2022-10-22T03:01:17.105Z,5.78
2022-10-22T03:03:45.110Z,6.03
2022-10-22T03:06:14.542Z,7.70
2022-10-22T03:08:42.829Z,7.25
2022-10-22T03:11:11.011Z,6.55
2022-10-22T03:13:39.120Z,6.97
2022-10-22T03:16:07.723Z,5.95
2022-10-22T03:18:36.008Z,5.68
2022-10-22T03:21:11.158Z,5.93
2022-10-22T03:23:42.049Z,6.50
2022-10-22T03:26:11.544Z,6.97
2022-10-22T03:28:41.414Z,6.35
2022-10-22T03:31:09.590Z,6.85
2022-10-22T03:33:37.594Z,7.00
2022-10-22T03:36:07.428Z,6.88
2022-10-22T03:38:36.405Z,7.05
2022-10-22T03:41:06.385Z,6.68
2022-10-22T03:43:35.629Z,7.10
2022-10-22T03:46:03.684Z,7.03
2022-10-22T03:48:31.775Z,6.47
2022-10-22T03:50:59.806Z,6.75
2022-10-22T03:53:27.784Z,6.07
2022-10-22T03:55:55.772Z,5.95
2022-10-22T03:58:25.157Z,6.55
2022-10-22T04:00:53.450Z,5.97
2022-10-22T04:03:21.460Z,6.07
2022-10-22T04:05:49.421Z,6.43
2022-10-22T04:08:17.415Z,7.55
2022-10-22T04:10:52.676Z,6.65
2022-10-22T04:13:20.673Z,7.32
2022-10-22T04:15:52.035Z,6.90
2022-10-22T04:18:20.057Z,7.20
2022-10-22T04:20:48.347Z,6.75
2022-10-22T04:23:18.414Z,7.50
2022-10-22T04:25:46.367Z,7.53
2022-10-22T04:28:14.351Z,7.82
2022-10-22T04:30:42.384Z,7.13
2022-10-22T04:33:11.753Z,6.57
2022-10-22T04:35:40.789Z,6.88
2022-10-22T04:38:08.792Z,7.50
2022-10-22T04:40:36.845Z,7.20
2022-10-22T04:43:04.902Z,8.48
2022-10-22T04:45:34.331Z,7.18
2022-10-22T04:48:02.377Z,7.60
2022-10-22T04:50:32.008Z,8.43
2022-10-22T04:53:00.007Z,7.68
2022-10-22T04:55:28.102Z,7.72
2022-10-22T04:57:56.195Z,7.28
2022-10-22T05:00:24.162Z,7.40
2022-10-22T05:02:52.654Z,7.55
2022-10-22T05:05:20.643Z,6.95
2022-10-22T05:07:52.289Z,7.90
2022-10-22T05:10:20.384Z,7.57
2022-10-22T05:12:48.355Z,8.23
2022-10-22T05:15:16.503Z,8.48
2022-10-22T05:17:44.824Z,8.52
2022-10-22T05:20:13.317Z,7.68
2022-10-22T05:22:41.325Z,9.40
2022-10-22T05:25:12.334Z,7.93
2022-10-22T05:27:40.587Z,7.65
2022-10-22T05:30:09.375Z,7.85
2022-10-22T05:32:37.336Z,7.50
2022-10-22T05:35:05.707Z,8.43
2022-10-22T05:37:33.713Z,8.65
2022-10-22T05:40:12.620Z,8.63
2022-10-22T05:42:51.088Z,7.68
2022-10-22T05:45:19.061Z,8.27
2022-10-22T05:47:47.059Z,8.05
2022-10-22T05:50:15.255Z,8.07
2022-10-22T05:52:43.495Z,7.82
2022-10-22T05:55:11.589Z,7.32
2022-10-22T05:57:40.899Z,8.18
2022-10-22T06:00:14.254Z,7.82
2022-10-22T06:02:44.597Z,7.43
2022-10-22T06:05:12.639Z,7.53
2022-10-22T06:07:40.636Z,8.38
2022-10-22T06:10:12.494Z,8.43
2022-10-22T06:12:40.985Z,8.00
2022-10-22T06:15:12.811Z,7.13
2022-10-22T06:17:41.042Z,9.10
2022-10-22T06:20:10.611Z,8.32
2022-10-22T06:22:38.830Z,7.65
2022-10-22T06:25:08.530Z,7.90
2022-10-22T06:27:36.700Z,7.93
2022-10-22T06:30:05.664Z,7.88
2022-10-22T06:32:35.200Z,8.07
2022-10-22T06:35:03.243Z,8.25
2022-10-22T06:37:31.223Z,7.80
2022-10-22T06:39:59.225Z,8.60
2022-10-22T06:42:27.327Z,7.72
2022-10-22T06:44:55.334Z,7.43
2022-10-22T06:47:23.370Z,9.00
2022-10-22T06:49:52.804Z,8.05
2022-10-22T06:52:20.810Z,8.23
2022-10-22T06:54:48.872Z,7.40
2022-10-22T06:57:17.352Z,7.55
2022-10-22T06:59:45.582Z,8.40
2022-10-22T07:02:13.562Z,8.75
2022-10-22T07:04:41.688Z,8.95
2022-10-22T07:07:11.039Z,8.57
2022-10-22T07:09:39.558Z,8.07
2022-10-22T07:12:08.078Z,8.18
2022-10-22T07:14:38.927Z,7.97
2022-10-22T07:17:06.884Z,8.77
2022-10-22T07:19:34.976Z,8.68
2022-10-22T07:22:03.067Z,10.00
2022-10-22T07:24:32.577Z,8.60
2022-10-22T07:27:00.597Z,9.48
2022-10-22T07:29:28.830Z,8.88
2022-10-22T07:31:56.835Z,8.40
2022-10-22T07:34:24.810Z,9.15
2022-10-22T07:36:52.824Z,9.18
2022-10-22T07:39:20.817Z,9.35
2022-10-22T07:41:50.231Z,10.20
2022-10-22T07:44:18.259Z,10.18
2022-10-22T07:46:48.871Z,8.65
2022-10-22T07:49:17.180Z,10.07
2022-10-22T07:51:45.324Z,10.38
2022-10-22T07:54:13.505Z,10.02
2022-10-22T07:56:41.521Z,8.85
2022-10-22T07:59:10.917Z,9.57
2022-10-22T08:01:38.958Z,9.88
2022-10-22T08:04:08.453Z,10.50
2022-10-22T08:06:38.725Z,10.40
2022-10-22T08:09:06.944Z,9.80
2022-10-22T08:11:35.111Z,10.38
2022-10-22T08:14:03.210Z,10.02
2022-10-22T08:16:32.561Z,10.68
2022-10-22T08:19:00.545Z,9.98
2022-10-22T08:21:28.634Z,9.80
2022-10-22T08:23:56.715Z,10.43
2022-10-22T08:26:24.815Z,10.05
2022-10-22T08:28:52.833Z,10.25
2022-10-22T08:31:20.827Z,11.15
2022-10-22T08:33:50.621Z,11.65
2022-10-22T08:36:18.693Z,11.07
2022-10-22T08:38:46.912Z,10.65
2022-10-22T08:41:18.832Z,11.20
2022-10-22T08:44:16.947Z,11.03
2022-10-22T08:47:00.589Z,11.95
2022-10-22T08:49:35.127Z,10.82
2022-10-22T08:52:06.164Z,11.25
2022-10-22T08:54:41.716Z,11.45
2022-10-22T08:57:25.389Z,10.40
2022-10-22T08:59:59.314Z,11.98
2022-10-22T09:02:39.713Z,13.15
2022-10-22T09:05:23.363Z,10.68
2022-10-22T09:07:51.700Z,11.45
2022-10-22T09:10:22.967Z,11.73
2022-10-22T09:12:51.012Z,18.05
2022-10-22T09:15:20.653Z,11.55
2022-10-22T09:18:00.857Z,11.45
2022-10-22T09:20:39.811Z,11.32
2022-10-22T09:23:25.756Z,11.63
2022-10-22T09:25:53.799Z,12.18
2022-10-22T09:28:21.774Z,12.95
2022-10-22T09:30:50.178Z,12.20
2022-10-22T09:33:25.357Z,12.05
2022-10-22T09:35:56.572Z,11.57
2022-10-22T09:38:27.742Z,12.50
2022-10-22T09:40:58.131Z,12.77
2022-10-22T09:43:26.556Z,12.55
2022-10-22T09:45:58.845Z,12.30
2022-10-22T09:48:32.249Z,12.93
2022-10-22T09:51:07.474Z,12.70
2022-10-22T09:53:40.614Z,14.15
2022-10-22T09:56:11.321Z,12.00
2022-10-22T09:58:44.016Z,13.00
2022-10-22T10:01:18.917Z,14.60
2022-10-22T10:03:48.919Z,12.18
2022-10-22T10:06:21.251Z,13.57
2022-10-22T10:08:50.051Z,13.13
2022-10-22T10:11:29.234Z,14.07
2022-10-22T10:14:09.873Z,12.43
2022-10-22T10:16:51.034Z,13.77
2022-10-22T10:19:35.236Z,13.73
2022-10-22T10:22:14.475Z,14.32
2022-10-22T10:24:58.205Z,13.07
2022-10-22T10:27:32.317Z,13.95
2022-10-22T10:30:04.028Z,14.77
2022-10-22T10:32:56.824Z,13.67
2022-10-22T10:35:28.767Z,13.45
2022-10-22T10:38:25.909Z,14.60
2022-10-22T10:41:05.542Z,13.80
2022-10-22T10:43:42.475Z,15.23
2022-10-22T10:46:19.660Z,14.32
2022-10-22T10:48:52.218Z,13.80
2022-10-22T10:54:32.927Z,13.88
2022-10-22T10:57:06.886Z,12.93
2022-10-22T10:59:52.003Z,13.38
2022-10-22T11:02:46.691Z,13.13
2022-10-22T11:05:40.044Z,13.43
2022-10-22T11:08:14.891Z,13.32
2022-10-22T11:10:47.744Z,13.90
2022-10-22T11:13:24.089Z,14.25
2022-10-22T11:15:56.576Z,13.50
2022-10-22T11:21:11.420Z,13.77
2022-10-22T11:23:43.952Z,13.15
2022-10-22T11:28:49.016Z,13.85
2022-10-22T11:31:19.096Z,14.07
2022-10-22T11:34:00.543Z,14.45
2022-10-22T11:36:33.686Z,14.85
2022-10-22T11:39:05.045Z,14.15
2022-10-22T11:41:36.144Z,15.45
2022-10-22T11:44:11.619Z,13.48
2022-10-22T11:46:47.185Z,14.02
2022-10-22T11:49:25.099Z,13.88
2022-10-22T11:52:22.724Z,14.13
2022-10-22T11:54:54.718Z,15.27
2022-10-22T11:57:28.575Z,13.50
2022-10-22T11:59:59.976Z,13.95
2022-10-22T12:02:45.221Z,14.40
2022-10-22T12:05:44.148Z,14.32
2022-10-22T12:08:28.737Z,13.95
2022-10-22T12:11:13.311Z,13.95
2022-10-22T12:14:02.970Z,13.88
2022-10-22T12:16:55.088Z,14.43
2022-10-22T12:19:30.417Z,14.23
2022-10-22T12:22:00.992Z,13.52
2022-10-22T12:24:34.322Z,13.70
2022-10-22T12:27:02.388Z,15.18
2022-10-22T12:29:34.085Z,15.57
2022-10-22T12:32:05.111Z,15.03
2022-10-22T12:34:33.101Z,16.48
2022-10-22T12:37:01.183Z,16.98
2022-10-22T12:39:30.136Z,16.25
2022-10-22T12:41:58.109Z,13.77
2022-10-22T12:44:26.139Z,15.75
2022-10-22T12:46:57.031Z,16.95
2022-10-22T12:49:33.110Z,15.90
2022-10-22T12:52:04.333Z,15.15
2022-10-22T12:54:34.621Z,15.85
2022-10-22T12:57:03.226Z,15.48
2022-10-22T12:59:36.287Z,16.13
2022-10-22T13:02:22.503Z,18.55
2022-10-22T13:05:17.042Z,15.43
2022-10-22T13:07:48.536Z,18.38
2022-10-22T13:10:27.078Z,16.25
2022-10-22T13:12:57.989Z,17.83
2022-10-22T13:15:38.508Z,16.15
2022-10-22T13:18:18.095Z,15.90
2022-10-22T13:20:57.633Z,16.58
2022-10-22T13:23:28.161Z,16.00
2022-10-22T13:26:00.910Z,16.10
2022-10-22T13:28:30.658Z,16.88
2022-10-22T13:31:01.028Z,15.23
2022-10-22T13:33:34.569Z,15.52
2022-10-22T13:36:02.979Z,15.73
2022-10-22T13:38:31.274Z,16.02
2022-10-22T13:40:59.901Z,15.73
2022-10-22T13:43:28.002Z,15.63
2022-10-22T13:45:59.370Z,15.93
2022-10-22T13:48:31.370Z,16.15
2022-10-22T13:50:59.444Z,16.25
2022-10-22T13:53:28.861Z,14.82
2022-10-22T13:55:56.923Z,14.80
2022-10-22T13:58:26.093Z,14.63
2022-10-22T14:00:55.927Z,14.07
2022-10-22T14:03:27.596Z,15.35
2022-10-22T14:05:57.379Z,15.00
2022-10-22T14:08:26.682Z,14.60
2022-10-22T14:10:54.816Z,16.00
2022-10-22T14:13:23.115Z,15.80
2022-10-22T14:15:53.533Z,13.95
2022-10-22T14:18:26.708Z,15.52
2022-10-22T14:20:58.083Z,14.25
2022-10-22T14:23:28.053Z,14.90
2022-10-22T14:25:56.929Z,15.98
2022-10-22T14:28:25.186Z,15.63
2022-10-22T14:30:53.861Z,15.52
2022-10-22T14:33:28.817Z,16.00
2022-10-22T14:36:01.063Z,16.17
2022-10-22T14:38:29.338Z,14.73
2022-10-22T14:40:58.542Z,15.43
2022-10-22T14:43:28.902Z,15.25
2022-10-22T14:45:57.158Z,17.13
2022-10-22T14:48:25.399Z,15.93
2022-10-22T14:50:53.584Z,16.63
2022-10-22T14:53:23.060Z,17.05
2022-10-22T14:55:51.877Z,16.08
2022-10-22T14:58:19.966Z,17.52
2022-10-22T15:00:47.987Z,15.80
2022-10-22T15:03:16.044Z,14.80
2022-10-22T15:05:45.282Z,13.68
2022-10-22T15:08:14.503Z,15.85
2022-10-22T15:10:44.161Z,15.32
2022-10-22T15:13:12.319Z,15.02
2022-10-22T15:15:41.901Z,15.57
2022-10-22T15:18:09.919Z,16.02
2022-10-22T15:20:37.984Z,15.48
2022-10-22T15:23:06.544Z,15.70
2022-10-22T15:25:34.642Z,14.88
2022-10-22T15:28:09.501Z,15.40
2022-10-22T15:30:38.279Z,15.13
2022-10-22T15:33:07.514Z,13.68
2022-10-22T15:35:35.588Z,13.52
2022-10-22T15:38:06.634Z,12.27
2022-10-22T15:40:34.653Z,14.70
2022-10-22T15:43:04.116Z,12.82
2022-10-22T15:45:32.163Z,12.15
2022-10-22T15:48:00.258Z,15.20
2022-10-22T15:50:28.669Z,13.02
2022-10-22T15:52:57.596Z,13.23
2022-10-22T15:55:25.577Z,13.05
2022-10-22T15:57:58.061Z,14.68
2022-10-22T16:00:30.043Z,14.55
2022-10-22T16:02:58.017Z,14.25
2022-10-22T16:05:27.971Z,12.90
2022-10-22T16:07:57.445Z,14.05
2022-10-22T16:10:25.917Z,14.13
2022-10-22T16:12:55.024Z,14.05
2022-10-22T16:15:23.109Z,14.82
2022-10-22T16:17:53.927Z,15.68
2022-10-22T16:20:21.966Z,16.80
2022-10-22T16:22:51.192Z,15.70
2022-10-22T16:25:19.198Z,16.60
2022-10-22T16:27:50.707Z,16.65
2022-10-22T16:30:18.881Z,18.08
2022-10-22T16:32:47.140Z,17.50
2022-10-22T16:35:16.883Z,17.80
2022-10-22T16:37:44.842Z,19.52
2022-10-22T16:40:14.050Z,20.05
2022-10-22T16:42:42.453Z,18.20
2022-10-22T16:45:11.285Z,19.65
2022-10-22T16:47:40.527Z,18.55
2022-10-22T16:50:09.614Z,20.30
2022-10-22T16:52:38.976Z,20.10
2022-10-22T16:55:07.880Z,19.48
2022-10-22T16:57:36.082Z,20.70
2022-10-22T17:00:05.398Z,20.17
2022-10-22T17:02:34.153Z,20.27
2022-10-22T17:05:02.743Z,20.60
2022-10-22T17:07:31.134Z,19.25
2022-10-22T17:10:01.589Z,22.55
2022-10-22T17:12:35.307Z,21.23
2022-10-22T17:15:03.965Z,20.80
2022-10-22T17:17:32.711Z,19.85
2022-10-22T17:20:00.817Z,19.92
2022-10-22T17:22:29.265Z,20.92
2022-10-22T17:25:12.511Z,21.27
2022-10-22T17:27:41.079Z,20.17
2022-10-22T17:30:13.725Z,20.17
2022-10-22T17:32:41.811Z,21.85
2022-10-22T17:35:10.805Z,19.98
2022-10-22T17:37:39.404Z,20.23
2022-10-22T17:40:10.832Z,19.73
2022-10-22T17:42:39.466Z,20.40
2022-10-22T17:45:09.686Z,21.38
2022-10-22T17:47:38.108Z,19.70
2022-10-22T17:50:07.125Z,20.95
2022-10-22T17:52:35.457Z,21.05
2022-10-22T17:55:04.003Z,20.63
2022-10-22T17:57:33.753Z,20.20
2022-10-22T18:00:02.076Z,20.65
2022-10-22T18:02:30.533Z,21.95
2022-10-22T18:04:58.789Z,20.30
2022-10-22T18:07:27.280Z,22.65
2022-10-22T18:09:56.204Z,22.50
2022-10-22T18:12:24.697Z,22.38
2022-10-22T18:14:55.288Z,22.80
2022-10-22T18:17:23.668Z,22.15
2022-10-22T18:19:51.949Z,22.95
2022-10-22T18:22:20.327Z,22.20
2022-10-22T18:24:48.390Z,22.02
2022-10-22T18:27:16.837Z,22.52
2022-10-22T18:29:44.999Z,22.27
2022-10-22T18:32:14.906Z,24.73
2022-10-22T18:34:43.354Z,21.40
2022-10-22T18:37:12.386Z,23.83
2022-10-22T18:39:40.977Z,23.70
2022-10-22T18:42:09.540Z,25.15
2022-10-22T18:44:38.209Z,23.75
2022-10-22T18:47:06.800Z,24.70
2022-10-22T18:49:36.555Z,25.35
2022-10-22T18:52:04.958Z,25.23
2022-10-22T18:54:33.740Z,23.50
2022-10-22T18:57:03.186Z,25.10
2022-10-22T18:59:32.286Z,23.95
2022-10-22T19:02:00.662Z,24.30
2022-10-22T19:04:33.605Z,23.20
2022-10-22T19:07:03.527Z,24.90
2022-10-22T19:09:32.113Z,25.08
2022-10-22T19:12:00.193Z,24.98
2022-10-22T19:14:28.768Z,22.85
2022-10-22T19:16:56.939Z,24.58
2022-10-22T19:19:25.994Z,23.48
2022-10-22T19:21:56.844Z,23.45
2022-10-22T19:24:27.451Z,24.58
2022-10-22T19:26:55.603Z,22.80
2022-10-22T19:29:24.095Z,23.75
2022-10-22T19:31:52.398Z,25.13
2022-10-22T19:34:21.235Z,23.77
2022-10-22T19:36:51.942Z,25.35
2022-10-22T19:39:20.501Z,24.95
2022-10-22T19:41:50.409Z,26.13
2022-10-22T19:44:20.315Z,25.52
2022-10-22T19:46:49.241Z,26.30
2022-10-22T19:49:22.084Z,24.83
2022-10-22T19:51:51.524Z,24.75
2022-10-22T19:54:20.739Z,24.58
2022-10-22T19:56:50.765Z,24.17
2022-10-22T19:59:21.176Z,23.15
2022-10-22T20:01:49.448Z,25.75
2022-10-22T20:04:18.770Z,25.40
2022-10-22T20:06:47.431Z,24.15
2022-10-22T20:09:15.502Z,23.95
2022-10-22T20:11:43.756Z,23.55
2022-10-22T20:14:14.093Z,22.92
2022-10-22T20:16:42.544Z,23.90
2022-10-22T20:19:13.585Z,27.33
2022-10-22T20:21:42.518Z,25.73
2022-10-22T20:24:11.934Z,24.35
2022-10-22T20:26:40.614Z,25.38
2022-10-22T20:29:09.596Z,27.58
2022-10-22T20:31:38.950Z,27.75
2022-10-22T20:34:06.933Z,26.20
2022-10-22T20:36:34.921Z,26.17
2022-10-22T20:39:06.367Z,26.25
2022-10-22T20:41:35.311Z,25.95
2022-10-22T20:44:03.873Z,26.88
2022-10-22T20:46:33.658Z,27.05
2022-10-22T20:49:07.607Z,26.38
2022-10-22T20:51:37.142Z,26.42
2022-10-22T20:54:06.419Z,28.10
2022-10-22T20:56:35.927Z,25.45
2022-10-22T20:59:08.360Z,25.77
2022-10-22T21:01:39.738Z,25.58
2022-10-22T21:04:09.774Z,26.48
2022-10-22T21:06:40.414Z,27.02
2022-10-22T21:09:09.652Z,26.05
2022-10-22T21:11:39.294Z,25.40
2022-10-22T21:14:08.570Z,26.08
2022-10-22T21:16:37.428Z,26.10
2022-10-22T21:19:05.393Z,25.23
2022-10-22T21:21:34.747Z,26.60
2022-10-22T21:24:02.743Z,26.27
2022-10-22T21:26:30.908Z,25.02
2022-10-22T21:28:58.947Z,24.55
2022-10-22T21:31:27.974Z,27.85
2022-10-22T21:33:56.400Z,23.95
2022-10-22T21:36:25.196Z,26.02
2022-10-22T21:38:55.058Z,28.45
2022-10-22T21:41:24.886Z,30.73
2022-10-22T21:43:53.418Z,30.67
2022-10-22T21:46:23.059Z,30.90
2022-10-22T21:48:55.115Z,29.52
2022-10-22T21:51:24.576Z,30.13
2022-10-22T21:53:55.245Z,29.92
2022-10-22T21:56:25.305Z,28.23
2022-10-22T21:58:53.665Z,26.33
2022-10-22T22:01:24.205Z,25.55
2022-10-22T22:03:55.849Z,26.55
2022-10-22T22:06:28.374Z,23.85
2022-10-22T22:09:06.221Z,23.65
2022-10-22T22:11:37.099Z,24.17
2022-10-22T22:14:05.111Z,22.88
2022-10-22T22:16:34.537Z,21.83
2022-10-22T22:21:42.310Z,22.05
2022-10-22T22:24:14.006Z,22.60
2022-10-22T22:26:42.044Z,23.52
2022-10-22T22:29:11.466Z,23.80
2022-10-22T22:31:40.297Z,24.35
2022-10-22T22:34:12.427Z,25.17
2022-10-22T22:36:42.136Z,25.63
2022-10-22T22:39:14.967Z,25.33
2022-10-22T22:41:43.105Z,25.08
2022-10-22T22:44:14.301Z,22.90
2022-10-22T22:46:42.469Z,24.70
2022-10-22T22:49:10.791Z,25.55
2022-10-22T22:51:38.796Z,24.52
2022-10-22T22:54:06.898Z,27.20
2022-10-22T22:56:36.515Z,28.00
2022-10-22T22:59:06.159Z,28.02
2022-10-22T23:01:36.507Z,27.00
2022-10-22T23:04:06.413Z,26.20
2022-10-22T23:06:37.290Z,25.27
2022-10-22T23:09:06.191Z,26.05
2022-10-22T23:11:36.022Z,26.52
2022-10-22T23:14:06.278Z,27.55
2022-10-22T23:16:36.894Z,26.85
2022-10-22T23:19:06.230Z,26.77
2022-10-22T23:21:35.906Z,26.60
2022-10-22T23:24:06.414Z,28.05
2022-10-22T23:26:37.745Z,27.10
2022-10-22T23:29:07.877Z,27.25
2022-10-22T23:31:36.002Z,25.92
2022-10-22T23:34:04.181Z,29.25
2022-10-22T23:36:32.358Z,26.05
2022-10-22T23:39:04.810Z,25.98
2022-10-22T23:41:32.926Z,27.17
2022-10-22T23:44:03.543Z,26.35
2022-10-22T23:46:32.803Z,24.90
2022-10-22T23:49:01.099Z,27.10
2022-10-22T23:51:29.615Z,26.13
2022-10-22T23:53:59.240Z,24.40
2022-10-22T23:56:28.232Z,27.55
2022-10-22T23:58:57.135Z,26.13
